Aviation Digital Data Service (ADDS)

Output produced by METARs form (1447 UTC 04 August 2021)
found at http://www.aviationweather.gov/metar/data/
 
METAR text: EDDK 041420Z 04004KT 360V080 9999 SCT043 21/13 Q1012 NOSIG
Conditions at: EDDK (KOELN/BONN , DE) observed 1420 UTC 04 August 2021
Temperature: 21.0°C (70°F)
Dewpoint: 13.0°C (55°F) [RH = 60%]
Pressure (altimeter): 29.88 inches Hg (1012.0 mb)
Winds: from the NE (40 degrees) at 5 MPH (4 knots; 2.1 m/s)
Visibility: 6 or more miles (10+ km)
Ceiling: at least 12,000 feet AGL
Clouds: scattered clouds at 4300 feet AGL
Weather: no significant weather observed at this time

METAR text: EDDK 041350Z 05008KT 9999 SCT043 21/14 Q1012 NOSIG
Conditions at: EDDK (KOELN/BONN , DE) observed 1350 UTC 04 August 2021
Temperature: 21.0°C (70°F)
Dewpoint: 14.0°C (57°F) [RH = 64%]
Pressure (altimeter): 29.88 inches Hg (1012.0 mb)
Winds: from the NE (50 degrees) at 9 MPH (8 knots; 4.1 m/s)
Visibility: 6 or more miles (10+ km)
Ceiling: at least 12,000 feet AGL
Clouds: scattered clouds at 4300 feet AGL
Weather: no significant weather observed at this time

Forecast for: EDDK (KOELN/BONN , DE)
Text: TAF EDDK 041100Z 0412/0518 VRB03KT 9999 SCT030
Forecast period: 1200 UTC 04 August 2021 to 1000 UTC 05 August 2021
Forecast type: FROM: standard forecast or significant change
Winds: variable direction winds at 3 MPH (3 knots; 1.5 m/s)
Visibility: 6 or more miles (10+ km)
Ceiling: at least 12,000 feet AGL
Clouds: scattered clouds at 3000 feet AGL
Weather: no significant weather forecast for this period
Text: TEMPO 0412/0420 03005KT
Forecast period: 1200 to 2000 UTC 04 August 2021
Forecast type: TEMPORARY: The following changes expected for less than half the time period
Winds: from the NNE (30 degrees) at 6 MPH (5 knots; 2.6 m/s)
Visibility: missing
Ceiling: unknown
Clouds: missing
Weather: no significant weather forecast for this period
Text: PROB30
Forecast period: 0400 to 0800 UTC 05 August 2021
Forecast type: TEMPORARY: The following changes expected for less than half the time period
Visibility: 2.17 miles (3.49 km)
Ceiling: 600 feet AGL
Clouds: broken clouds at 600 feet AGL
Weather: BR  (mist)
Text: TEMPO 0504/0508 3500 BR BKN006
Forecast period: 1000 to 1800 UTC 05 August 2021
Forecast type: BECOMING: Conditions expected to become as follows by 1200 UTC 05 August 2021
Winds: from the SW (220 degrees) at 7 MPH (6 knots; 3.1 m/s)
Visibility: 6 or more miles (10+ km)
Ceiling: at least 12,000 feet AGL
Clouds: scattered clouds at 3000 feet AGL
Weather: no significant weather forecast for this period
Text: BECMG 0510/0512 22006KT
Forecast period: 1000 to 1800 UTC 05 August 2021
Forecast type: TEMPORARY: The following changes expected for less than half the time period
Visibility: missing
Ceiling: 3000 feet AGL
Clouds: broken clouds at 3000 feet AGL
Weather: SHRA  (rain showers)
Text: TEMPO 0510/0518 SHRA BKN030CB
Forecast period: 1300 to 1800 UTC 05 August 2021
Forecast type: TEMPORARY: The following changes expected for less than half the time period
Visibility: missing
Ceiling: unknown
Clouds: missing
Weather: TSRA  (rain associated with thunderstorm(s))

METAR text: EDGS 041420Z VRB03KT 9999 FEW029 BKN033 20/12 Q1013
Conditions at: EDGS (SIEGERLAND , DE) observed 1420 UTC 04 August 2021
Temperature: 20.0°C (68°F)
Dewpoint: 12.0°C (54°F) [RH = 60%]
Pressure (altimeter): 29.91 inches Hg (1013.0 mb)
Winds: variable direction winds at 3 MPH (3 knots; 1.5 m/s)
Visibility: 6 or more miles (10+ km)
Ceiling: 3300 feet AGL
Clouds: few clouds at 2900 feet AGL
broken clouds at 3300 feet AGL
Weather: no significant weather observed at this time

METAR text: EDGS 041350Z VRB03KT 9999 SCT029 18/11 Q1013
Conditions at: EDGS (SIEGERLAND , DE) observed 1350 UTC 04 August 2021
Temperature: 18.0°C (64°F)
Dewpoint: 11.0°C (52°F) [RH = 64%]
Pressure (altimeter): 29.91 inches Hg (1013.0 mb)
Winds: variable direction winds at 3 MPH (3 knots; 1.5 m/s)
Visibility: 6 or more miles (10+ km)
Ceiling: at least 12,000 feet AGL
Clouds: scattered clouds at 2900 feet AGL
Weather: no significant weather observed at this time

Forecast for: EDGS (SIEGERLAND , DE)
Text: TAF EDGS 041400Z 0415/0424 VRB03KT 9999 SCT025
Forecast period: 1500 UTC 04 August 2021 to 0000 UTC 05 August 2021
Forecast type: FROM: standard forecast or significant change
Winds: variable direction winds at 3 MPH (3 knots; 1.5 m/s)
Visibility: 6 or more miles (10+ km)
Ceiling: at least 12,000 feet AGL
Clouds: scattered clouds at 2500 feet AGL
Weather: no significant weather forecast for this period
Text: TEMPO 0415/0418 08007KT SHRA BKN013CB
Forecast period: 1500 to 1800 UTC 04 August 2021
Forecast type: TEMPORARY: The following changes expected for less than half the time period
Winds: from the E (80 degrees) at 8 MPH (7 knots; 3.6 m/s)
Visibility: missing
Ceiling: 1300 feet AGL
Clouds: broken clouds at 1300 feet AGL
Weather: SHRA  (rain showers)
Text: TEMPO 0421/0424 BKN010
Forecast period: 2100 UTC 04 August 2021 to 0000 UTC 05 August 2021
Forecast type: TEMPORARY: The following changes expected for less than half the time period
Visibility: missing
Ceiling: 1000 feet AGL
Clouds: broken clouds at 1000 feet AGL
Weather: no significant weather forecast for this period

METAR text: EDLW 041420Z 16007KT 120V200 8000 -TSRA FEW023CB BKN040 17/14 Q1013
Conditions at: EDLW (DORTMUND/WICKEDE, DE) observed 1420 UTC 04 August 2021
Temperature: 17.0°C (63°F)
Dewpoint: 14.0°C (57°F) [RH = 82%]
Pressure (altimeter): 29.91 inches Hg (1013.0 mb)
Winds: from the SSE (160 degrees) at 8 MPH (7 knots; 3.6 m/s)
Visibility: 5 miles ( 8 km)
Ceiling: 4000 feet AGL
Clouds: few clouds at 2300 feet AGL
broken clouds at 4000 feet AGL
Weather: -TSRA  (light rain associated with thunderstorm(s))

METAR text: EDLW 041350Z 06005KT 020V090 9999 FEW014 20/12 Q1012
Conditions at: EDLW (DORTMUND/WICKEDE, DE) observed 1350 UTC 04 August 2021
Temperature: 20.0°C (68°F)
Dewpoint: 12.0°C (54°F) [RH = 60%]
Pressure (altimeter): 29.88 inches Hg (1012.0 mb)
Winds: from the ENE (60 degrees) at 6 MPH (5 knots; 2.6 m/s)
Visibility: 6 or more miles (10+ km)
Ceiling: at least 12,000 feet AGL
Clouds: few clouds at 1400 feet AGL
Weather: no significant weather observed at this time

Forecast for: AMD
Text: TAF AMD EDLW 041413Z 0414/0512 04005KT 9999 SCT040
Forecast period: 1400 to 1700 UTC 04 August 2021
Forecast type: FROM: standard forecast or significant change
Winds: from the NE (40 degrees) at 6 MPH (5 knots; 2.6 m/s)
Visibility: 6 or more miles (10+ km)
Ceiling: at least 12,000 feet AGL
Clouds: scattered clouds at 4000 feet AGL
Weather: no significant weather forecast for this period
Text: TEMPO 0414/0417 SHRA BKN030CB
Forecast period: 1400 to 1700 UTC 04 August 2021
Forecast type: TEMPORARY: The following changes expected for less than half the time period
Visibility: missing
Ceiling: 3000 feet AGL
Clouds: broken clouds at 3000 feet AGL
Weather: SHRA  (rain showers)
Text: PROB30
Forecast period: 1400 to 1600 UTC 04 August 2021
Forecast type: TEMPORARY: The following changes expected for less than half the time period
Visibility: missing
Ceiling: unknown
Clouds: missing
Weather: TSRA  (rain associated with thunderstorm(s))
Text: TEMPO 0414/0416 TSRA
Forecast period: 1700 UTC 04 August 2021 to 0900 UTC 05 August 2021
Forecast type: BECOMING: Conditions expected to become as follows by 2000 UTC 04 August 2021
Winds: variable direction winds at 3 MPH (3 knots; 1.5 m/s)
Visibility: 6 or more miles (10+ km)
Ceiling: at least 12,000 feet AGL
Clouds: scattered clouds at 4000 feet AGL
Weather: no significant weather forecast for this period
Text: BECMG 0417/0420 VRB03KT
Forecast period: 0900 to 1200 UTC 05 August 2021
Forecast type: BECOMING: Conditions expected to become as follows by 1200 UTC 05 August 2021
Winds: from the SSW (200 degrees) at 7 MPH (6 knots; 3.1 m/s)
Visibility: 6 or more miles (10+ km)
Ceiling: at least 12,000 feet AGL
Clouds: scattered clouds at 4000 feet AGL
Weather: no significant weather forecast for this period
Text: BECMG 0509/0512 20006KT
Forecast period: 1000 to 1200 UTC 05 August 2021
Forecast type: TEMPORARY: The following changes expected for less than half the time period
Visibility: missing
Ceiling: 2000 feet AGL
Clouds: broken clouds at 2000 feet AGL
Weather: SHRA  (rain showers)

METAR text: EDDL 041420Z 11004KT 080V140 9999 FEW045TCU 20/14 Q1012 NOSIG
Conditions at: EDDL (DUESSELDORF , DE) observed 1420 UTC 04 August 2021
Temperature: 20.0°C (68°F)
Dewpoint: 14.0°C (57°F) [RH = 68%]
Pressure (altimeter): 29.88 inches Hg (1012.0 mb)
Winds: from the ESE (110 degrees) at 5 MPH (4 knots; 2.1 m/s)
Visibility: 6 or more miles (10+ km)
Ceiling: at least 12,000 feet AGL
Clouds: few clouds at 4500 feet AGL
Weather: no significant weather observed at this time

METAR text: EDDL 041350Z 10005KT 070V130 9999 -SHRA SCT045TCU 19/15 Q1013 TEMPO SHRA
Conditions at: EDDL (DUESSELDORF , DE) observed 1350 UTC 04 August 2021
Temperature: 19.0°C (66°F)
Dewpoint: 15.0°C (59°F) [RH = 78%]
Pressure (altimeter): 29.91 inches Hg (1013.0 mb)
Winds: from the E (100 degrees) at 6 MPH (5 knots; 2.6 m/s)
Visibility: 6 or more miles (10+ km)
Ceiling: at least 12,000 feet AGL
Clouds: scattered clouds at 4500 feet AGL
Weather: -SHRA  (light rain showers)

Forecast for: EDDL (DUESSELDORF , DE)
Text: TAF EDDL 041100Z 0412/0518 VRB03KT 9999 FEW040
Forecast period: 1200 UTC 04 August 2021 to 0800 UTC 05 August 2021
Forecast type: FROM: standard forecast or significant change
Winds: variable direction winds at 3 MPH (3 knots; 1.5 m/s)
Visibility: 6 or more miles (10+ km)
Ceiling: at least 12,000 feet AGL
Clouds: few clouds at 4000 feet AGL
Weather: no significant weather forecast for this period
Text: TEMPO 0412/0419 36005KT
Forecast period: 1200 to 1900 UTC 04 August 2021
Forecast type: TEMPORARY: The following changes expected for less than half the time period
Winds: from the N (360 degrees) at 6 MPH (5 knots; 2.6 m/s)
Visibility: missing
Ceiling: unknown
Clouds: missing
Weather: no significant weather forecast for this period
Text: PROB30
Forecast period: 0500 to 0700 UTC 05 August 2021
Forecast type: TEMPORARY: The following changes expected for less than half the time period
Visibility: 2.49 miles (4.01 km)
Ceiling: unknown
Clouds: missing
Weather: BR  (mist)
Text: TEMPO 0505/0507 4000 BR
Forecast period: 0800 to 1800 UTC 05 August 2021
Forecast type: BECOMING: Conditions expected to become as follows by 1100 UTC 05 August 2021
Winds: from the SW (220 degrees) at 7 MPH (6 knots; 3.1 m/s)
Visibility: 6 or more miles (10+ km)
Ceiling: at least 12,000 feet AGL
Clouds: few clouds at 4000 feet AGL
Weather: no significant weather forecast for this period
Text: BECMG 0508/0511 22006KT
Forecast period: 1000 to 1800 UTC 05 August 2021
Forecast type: TEMPORARY: The following changes expected for less than half the time period
Visibility: missing
Ceiling: 3000 feet AGL
Clouds: broken clouds at 3000 feet AGL
Weather: SHRA  (rain showers)
Text: TEMPO 0510/0518 SHRA BKN030CB
Forecast period: 1300 to 1800 UTC 05 August 2021
Forecast type: TEMPORARY: The following changes expected for less than half the time period
Visibility: missing
Ceiling: unknown
Clouds: missing
Weather: TSRA  (rain associated with thunderstorm(s))